Terminal Aerodrome Forecast
Issued by NWS

Home | Current Version | Previous Version | Text Only | Print | Product List | Glossary On
Versions: 1 2 3 4 5 6 7 8 9 10 11 12 13 14 15 16 17 18 19 20
000
FTUS43 KLSX 310049 AAA
TAFCPS
TAF AMD
KCPS 310049Z 3101/3124 VRB03KT P6SM VCTS SCT045CB
     FM310200 VRB03KT P6SM FEW080
     FM311500 17007KT P6SM SCT040=

USA.gov is the U.S. government's official web portal to all federal, state and local government web resources and services.